Time;durP1;ratioP1;P1;durP2;ratioP2;P2;SDS_P1;SDS_P2;PMS_P1;PMS_P2;Temp;Humidity;BMP_temperature;BMP_pressure;BME280_temperature;BME280_humidity;BME280_pressure;Samples;Min_cycle;Max_cycle;Signal;HPM_P1;HPM_P2
2023/09/25 00:00:31;;;;;;;3.28;2.10;;;;;;;12.35;100.00;102222.41;4925566;29;20060;-77
2023/09/25 00:03:00;;;;;;;2.58;2.38;;;;;;;12.33;100.00;102217.09;4927627;29;20047;-76
2023/09/25 00:05:28;;;;;;;2.45;2.08;;;;;;;12.33;100.00;102224.16;4902046;28;20035;-77
2023/09/25 00:07:56;;;;;;;4.35;2.20;;;;;;;12.31;100.00;102218.81;4932756;28;20461;-76
2023/09/25 00:10:25;;;;;;;2.38;2.15;;;;;;;12.29;100.00;102217.91;4931146;29;20414;-77
2023/09/25 00:12:52;;;;;;;3.47;2.13;;;;;;;12.31;100.00;102212.66;4958428;28;20427;-76
2023/09/25 00:15:20;;;;;;;2.38;2.15;;;;;;;12.31;100.00;102210.91;4925310;29;20070;-76
2023/09/25 00:17:48;;;;;;;3.75;2.33;;;;;;;12.30;100.00;102209.09;4943021;29;20688;-77
2023/09/25 00:20:20;;;;;;;5.18;2.50;;;;;;;12.30;100.00;102206.47;4927117;29;20055;-76
2023/09/25 00:22:47;;;;;;;3.75;2.65;;;;;;;12.29;100.00;102213.50;4875521;29;20438;-76
2023/09/25 00:25:18;;;;;;;6.00;2.22;;;;;;;12.27;100.00;102204.66;4961630;28;20573;-76
2023/09/25 00:27:46;;;;;;;3.63;2.35;;;;;;;12.28;100.00;102203.78;4963323;28;20047;-77
2023/09/25 00:30:14;;;;;;;2.35;2.15;;;;;;;12.29;100.00;102215.25;4936639;28;20109;-77
2023/09/25 00:32:42;;;;;;;4.00;2.50;;;;;;;12.31;100.00;102204.72;4943543;29;20058;-77
2023/09/25 00:35:10;;;;;;;3.97;2.08;;;;;;;12.32;100.00;102207.38;4941905;28;20043;-76
2023/09/25 00:37:38;;;;;;;3.33;2.38;;;;;;;12.33;100.00;102214.44;4892339;29;20055;-77
2023/09/25 00:40:13;;;;;;;3.72;2.30;;;;;;;12.35;100.00;102220.66;4949010;28;20055;-76
2023/09/25 00:42:41;;;;;;;3.22;2.72;;;;;;;12.39;100.00;102214.56;4939814;29;20498;-77
2023/09/25 00:45:10;;;;;;;2.83;2.08;;;;;;;12.39;100.00;102214.56;4910295;29;20087;-77
2023/09/25 00:47:42;;;;;;;2.58;2.38;;;;;;;12.42;100.00;102219.00;4930636;29;20051;-77
2023/09/25 00:50:10;;;;;;;3.70;2.30;;;;;;;12.44;100.00;102218.19;4944132;28;20043;-77
2023/09/25 00:52:45;;;;;;;3.47;2.17;;;;;;;12.47;100.00;102222.63;4881007;29;20051;-77
2023/09/25 00:55:16;;;;;;;6.25;2.53;;;;;;;12.47;100.00;102223.50;4936489;28;20063;-77
2023/09/25 00:57:48;;;;;;;5.22;2.33;;;;;;;12.52;100.00;102225.34;4942525;29;20518;-77
2023/09/25 01:00:17;;;;;;;4.78;2.72;;;;;;;12.54;100.00;102218.34;4898856;29;20048;-77
2023/09/25 01:02:46;;;;;;;4.73;2.37;;;;;;;12.55;100.00;102217.47;4907372;29;20381;-77
2023/09/25 01:05:13;;;;;;;4.47;2.80;;;;;;;12.57;100.00;102210.44;4922979;29;20507;-77
2023/09/25 01:07:41;;;;;;;3.72;2.22;;;;;;;12.60;100.00;102215.78;4883359;29;20054;-77
2023/09/25 01:10:15;;;;;;;7.25;2.95;;;;;;;12.60;100.00;102211.38;4914773;29;20040;-77
2023/09/25 01:12:48;;;;;;;2.85;2.55;;;;;;;12.61;100.00;102209.66;4912256;29;20043;-77
2023/09/25 01:15:15;;;;;;;6.07;2.45;;;;;;;12.63;100.00;102221.13;4899631;29;20078;-77
2023/09/25 01:17:43;;;;;;;3.47;2.58;;;;;;;12.63;100.00;102216.72;4896386;29;20059;-77
2023/09/25 01:20:15;;;;;;;2.28;2.05;;;;;;;12.64;100.00;102221.13;4926059;29;20044;-77
2023/09/25 01:22:48;;;;;;;2.63;2.42;;;;;;;12.65;100.00;102215.00;4884949;29;20060;-77
2023/09/25 01:25:17;;;;;;;4.20;2.40;;;;;;;12.64;100.00;102209.69;4915691;29;20040;-77
2023/09/25 01:27:47;;;;;;;2.30;2.10;;;;;;;12.65;100.00;102215.00;4926031;29;20494;-77
2023/09/25 01:30:17;;;;;;;5.95;2.30;;;;;;;12.64;100.00;102213.22;4914834;29;20055;-77
2023/09/25 01:32:48;;;;;;;4.22;2.83;;;;;;;12.63;100.00;102211.44;4911423;29;20046;-77
2023/09/25 01:35:18;;;;;;;3.22;2.10;;;;;;;12.63;100.00;102213.22;4910165;29;20044;-77
2023/09/25 01:37:47;;;;;;;3.67;2.42;;;;;;;12.60;100.00;102203.44;4921934;29;20062;-77
2023/09/25 01:40:17;;;;;;;3.42;2.20;;;;;;;12.58;100.00;102205.19;4904050;28;20560;-77
2023/09/25 01:42:46;;;;;;;3.35;2.50;;;;;;;12.57;100.00;102195.47;4912986;29;20059;-77
2023/09/25 01:45:16;;;;;;;2.53;2.13;;;;;;;12.56;100.00;102200.75;4909154;29;20050;-77
2023/09/25 01:47:51;;;;;;;3.03;2.78;;;;;;;12.54;100.00;102191.91;4900916;29;20055;-77
2023/09/25 01:50:22;;;;;;;6.43;2.70;;;;;;;12.54;100.00;102191.91;4909137;29;20050;-77
2023/09/25 01:52:55;;;;;;;3.55;2.50;;;;;;;12.52;100.00;102193.63;4910270;29;20040;-77
2023/09/25 01:55:22;;;;;;;3.53;2.22;;;;;;;12.50;100.00;102193.59;4885786;29;20048;-77
2023/09/25 01:57:50;;;;;;;4.25;2.50;;;;;;;12.47;100.00;102190.88;4918388;29;20047;-77
2023/09/25 02:00:18;;;;;;;2.67;2.42;;;;;;;12.45;100.00;102190.84;4928111;29;20501;-77
2023/09/25 02:02:46;;;;;;;2.40;2.20;;;;;;;12.43;100.00;102187.31;4918839;29;20513;-77
2023/09/25 02:05:15;;;;;;;2.10;1.95;;;;;;;12.42;100.00;102185.53;4927194;29;20043;-77
2023/09/25 02:07:42;;;;;;;3.08;2.35;;;;;;;12.41;100.00;102183.75;4914382;29;20066;-77
2023/09/25 02:10:10;;;;;;;2.17;2.03;;;;;;;12.41;100.00;102181.09;4916454;28;20087;-77
2023/09/25 02:12:37;;;;;;;2.40;2.20;;;;;;;12.40;100.00;102178.44;4938690;28;20058;-77
2023/09/25 02:15:07;;;;;;;2.72;2.15;;;;;;;12.38;100.00;102178.44;4942351;29;20059;-77
2023/09/25 02:17:35;;;;;;;3.38;2.30;;;;;;;12.37;100.00;102178.41;4923640;29;20054;-77
2023/09/25 02:20:16;;;;;;;3.58;2.10;;;;;;;12.34;100.00;102176.56;4946343;29;20051;-77
2023/09/25 02:22:46;;;;;;;2.42;2.28;;;;;;;12.32;100.00;102165.06;4919988;29;20058;-77
2023/09/25 02:25:15;;;;;;;2.67;2.10;;;;;;;12.31;100.00;102173.00;4899561;28;20796;-77
2023/09/25 02:27:42;;;;;;;3.00;2.67;;;;;;;12.29;100.00;102172.97;4922635;29;20066;-77
2023/09/25 02:30:10;;;;;;;2.80;2.50;;;;;;;12.26;100.00;102171.16;4930273;28;20763;-77
2023/09/25 02:32:41;;;;;;;2.55;2.25;;;;;;;12.24;100.00;102172.00;4923671;29;20055;-77
2023/09/25 02:35:09;;;;;;;2.47;2.28;;;;;;;12.22;100.00;102164.03;4930181;29;20035;-77
2023/09/25 02:37:37;;;;;;;2.85;2.05;;;;;;;12.19;100.00;102171.94;4933175;29;20426;-77
2023/09/25 02:40:06;;;;;;;3.80;2.50;;;;;;;12.17;100.00;102159.53;4914979;29;20053;-77
2023/09/25 02:42:34;;;;;;;4.47;2.58;;;;;;;12.15;100.00;102163.91;4873829;29;20055;-77
2023/09/25 02:45:02;;;;;;;6.20;3.25;;;;;;;12.13;100.00;102178.84;4920037;29;20047;-77
2023/09/25 02:47:29;;;;;;;4.28;2.60;;;;;;;12.11;100.00;102168.25;4948962;28;20039;-77
2023/09/25 02:49:57;;;;;;;3.05;2.65;;;;;;;12.09;100.00;102175.25;4920384;29;20058;-76
2023/09/25 02:52:24;;;;;;;3.33;2.58;;;;;;;12.09;100.00;102167.31;4920811;29;20047;-77
2023/09/25 02:54:51;;;;;;;4.03;2.83;;;;;;;12.09;100.00;102169.97;4916030;29;20059;-77
2023/09/25 02:57:18;;;;;;;2.70;2.50;;;;;;;12.07;100.00;102161.13;4880291;29;20059;-77
2023/09/25 02:59:46;;;;;;;3.47;2.75;;;;;;;12.05;100.00;102169.03;4921819;29;20043;-77
2023/09/25 03:02:13;;;;;;;3.35;2.83;;;;;;;12.03;100.00;102177.78;4932286;29;20687;-77
2023/09/25 03:04:40;;;;;;;6.00;2.72;;;;;;;12.03;100.00;102175.16;4941089;29;20043;-77
2023/09/25 03:07:07;;;;;;;2.95;2.50;;;;;;;12.02;100.00;102176.00;4946746;29;20116;-77
2023/09/25 03:09:35;;;;;;;3.08;2.78;;;;;;;12.01;100.00;102179.53;4933057;29;20059;-77
2023/09/25 03:12:03;;;;;;;3.90;2.75;;;;;;;11.99;100.00;102174.19;4873373;28;20445;-77
2023/09/25 03:14:31;;;;;;;3.22;2.40;;;;;;;11.98;100.00;102177.69;4909544;29;20047;-77
2023/09/25 03:16:58;;;;;;;2.88;2.58;;;;;;;11.97;100.00;102181.22;4947729;29;20508;-77
2023/09/25 03:19:28;;;;;;;4.30;2.42;;;;;;;11.96;100.00;102173.25;4935278;29;20060;-77
2023/09/25 03:21:55;;;;;;;5.73;2.70;;;;;;;11.95;100.00;102164.44;4947417;29;20043;-77
2023/09/25 03:24:23;;;;;;;2.95;2.45;;;;;;;11.93;100.00;102163.53;4928164;29;20431;-77
2023/09/25 03:26:50;;;;;;;3.28;2.60;;;;;;;11.93;100.00;102167.91;4932659;29;20418;-77
2023/09/25 03:29:17;;;;;;;4.30;2.85;;;;;;;11.90;100.00;102166.97;4860648;29;20054;-77
2023/09/25 03:31:45;;;;;;;3.17;2.63;;;;;;;11.89;100.00;102161.66;4916154;29;20055;-77
2023/09/25 03:34:13;;;;;;;2.55;2.17;;;;;;;11.86;100.00;102157.19;4905069;29;20043;-77
2023/09/25 03:36:40;;;;;;;4.15;2.50;;;;;;;11.85;100.00;102158.06;4949148;29;20050;-77
2023/09/25 03:39:09;;;;;;;3.08;2.88;;;;;;;11.84;100.00;102158.91;4944901;29;20081;-77
2023/09/25 03:41:36;;;;;;;2.60;2.40;;;;;;;11.82;100.00;102158.00;4915944;29;20047;-77
2023/09/25 03:44:04;;;;;;;9.80;2.53;;;;;;;11.82;100.00;102160.66;4884082;29;20535;-77
2023/09/25 03:46:31;;;;;;;3.95;2.72;;;;;;;11.81;100.00;102163.25;4932507;29;20058;-77
2023/09/25 03:49:05;;;;;;;2.67;2.47;;;;;;;11.80;100.00;102149.16;4946409;28;20524;-77
2023/09/25 03:51:33;;;;;;;5.75;2.95;;;;;;;11.78;100.00;102156.16;4937521;28;20418;-77
2023/09/25 03:54:01;;;;;;;2.63;2.42;;;;;;;11.78;100.00;102147.38;4941796;28;20047;-77
2023/09/25 03:56:31;;;;;;;5.57;3.13;;;;;;;11.80;100.00;102156.19;4931463;29;20081;-77
2023/09/25 03:58:58;;;;;;;3.90;3.03;;;;;;;11.79;100.00;102152.66;4901222;28;20043;-77
2023/09/25 04:01:25;;;;;;;2.72;2.40;;;;;;;11.79;100.00;102150.00;4910134;29;20051;-77
2023/09/25 04:03:53;;;;;;;2.92;2.47;;;;;;;11.80;100.00;102145.63;4943391;29;20051;-77
2023/09/25 04:06:20;;;;;;;5.93;2.58;;;;;;;11.76;100.00;102136.75;4936226;28;20054;-77
2023/09/25 04:08:48;;;;;;;2.60;2.40;;;;;;;11.77;100.00;102140.28;4919662;29;20051;-77
2023/09/25 04:11:16;;;;;;;3.08;2.80;;;;;;;11.77;100.00;102151.72;4913131;29;20047;-77
2023/09/25 04:13:43;;;;;;;4.43;2.80;;;;;;;11.77;100.00;102153.50;4927498;29;20059;-77
2023/09/25 04:16:14;;;;;;;3.72;2.33;;;;;;;11.78;100.00;102152.66;4862349;29;20043;-77
2023/09/25 04:18:42;;;;;;;3.83;2.50;;;;;;;11.78;100.00;102152.66;4930274;28;20044;-77
2023/09/25 04:21:14;;;;;;;3.97;2.78;;;;;;;11.79;100.00;102154.41;4933618;29;20055;-77
2023/09/25 04:23:42;;;;;;;2.95;2.30;;;;;;;11.79;100.00;102149.13;4938489;28;20058;-77
2023/09/25 04:26:11;;;;;;;3.42;2.80;;;;;;;11.79;100.00;102155.28;4944112;29;20667;-77
2023/09/25 04:28:42;;;;;;;2.95;2.72;;;;;;;11.81;100.00;102155.31;4915247;29;20063;-77
2023/09/25 04:31:11;;;;;;;3.05;2.78;;;;;;;11.81;100.00;102153.56;4883895;28;20054;-76
2023/09/25 04:33:38;;;;;;;3.20;2.58;;;;;;;11.81;100.00;102157.97;4938251;29;20052;-77
2023/09/25 04:36:10;;;;;;;4.15;2.60;;;;;;;11.81;100.00;102155.31;4942610;28;20055;-77
2023/09/25 04:38:38;;;;;;;4.72;2.92;;;;;;;11.81;100.00;102150.03;4901721;28;20058;-77
2023/09/25 04:41:06;;;;;;;4.45;3.00;;;;;;;11.80;100.00;102153.56;4951372;28;20039;-77
2023/09/25 04:43:33;;;;;;;3.22;2.65;;;;;;;11.79;100.00;102154.41;4930154;29;20051;-77
2023/09/25 04:46:01;;;;;;;6.35;2.90;;;;;;;11.78;100.00;102147.38;4875228;28;20051;-76
2023/09/25 04:48:31;;;;;;;4.68;2.55;;;;;;;11.77;100.00;102151.72;4901211;29;20136;-76
2023/09/25 04:50:59;;;;;;;6.57;2.83;;;;;;;11.79;100.00;102154.41;4942772;29;20061;-76
2023/09/25 04:53:26;;;;;;;3.03;2.60;;;;;;;11.77;100.00;102150.84;4936499;29;20044;-77
2023/09/25 04:55:54;;;;;;;3.25;2.70;;;;;;;11.77;100.00;102148.22;4903198;29;20082;-76
2023/09/25 04:58:21;;;;;;;2.85;2.65;;;;;;;11.76;100.00;102149.97;4946265;28;20063;-77
2023/09/25 05:00:48;;;;;;;4.13;2.50;;;;;;;11.75;100.00;102152.56;4930364;29;20426;-76
2023/09/25 05:03:16;;;;;;;2.85;2.65;;;;;;;11.75;100.00;102150.81;4861299;29;20067;-76
2023/09/25 05:05:44;;;;;;;3.97;2.90;;;;;;;11.75;100.00;102147.28;4899039;29;20094;-76
2023/09/25 05:08:12;;;;;;;3.25;2.95;;;;;;;11.76;100.00;102144.69;4934265;28;20407;-77
2023/09/25 05:10:39;;;;;;;3.40;2.42;;;;;;;11.75;100.00;102157.84;4876225;29;20070;-76
2023/09/25 05:13:07;;;;;;;2.95;2.50;;;;;;;11.74;100.00;102156.97;4934163;29;20043;-76
2023/09/25 05:15:34;;;;;;;4.88;3.40;;;;;;;11.74;100.00;102162.25;4945844;28;20043;-76
2023/09/25 05:18:02;;;;;;;5.13;3.05;;;;;;;11.74;100.00;102166.63;4906446;28;20510;-76
2023/09/25 05:20:30;;;;;;;4.78;2.75;;;;;;;11.72;100.00;102166.63;4917929;28;20530;-77
2023/09/25 05:22:57;;;;;;;3.33;2.60;;;;;;;11.74;100.00;102177.19;4920396;29;20051;-77
2023/09/25 05:25:26;;;;;;;3.72;2.67;;;;;;;11.72;100.00;102163.97;4907629;29;20051;-77
2023/09/25 05:27:56;;;;;;;5.60;2.70;;;;;;;11.71;100.00;102183.31;4915976;28;20052;-76
2023/09/25 05:30:24;;;;;;;4.53;2.78;;;;;;;11.72;100.00;102166.63;4943243;28;20043;-77
2023/09/25 05:32:53;;;;;;;4.15;2.67;;;;;;;11.73;100.00;102175.44;4906863;29;20059;-77
2023/09/25 05:35:20;;;;;;;3.17;2.88;;;;;;;11.73;100.00;102178.94;4891569;29;20047;-77
2023/09/25 05:37:48;;;;;;;6.03;4.13;;;;;;;11.75;100.00;102189.53;4924597;29;20060;-76
2023/09/25 05:40:17;;;;;;;6.20;3.40;;;;;;;11.75;100.00;102178.97;4930380;28;20525;-76
2023/09/25 05:42:47;;;;;;;3.35;2.65;;;;;;;11.76;100.00;102188.66;4939913;28;20516;-77
2023/09/25 05:45:16;;;;;;;3.58;3.15;;;;;;;11.78;100.00;102189.63;4935150;29;20058;-77
2023/09/25 05:47:44;;;;;;;4.90;2.90;;;;;;;11.80;100.00;102177.34;4950149;28;20039;-75
2023/09/25 05:50:13;;;;;;;3.88;3.38;;;;;;;11.80;100.00;102182.63;4885351;28;20062;-76
2023/09/25 05:52:40;;;;;;;3.72;3.00;;;;;;;11.80;100.00;102185.25;4955300;28;20058;-77
2023/09/25 05:55:10;;;;;;;3.50;3.13;;;;;;;11.81;100.00;102179.97;4954012;28;20196;-77
2023/09/25 05:57:38;;;;;;;3.75;3.38;;;;;;;11.81;100.00;102181.72;4921540;28;20120;-80
2023/09/25 06:00:12;;;;;;;4.30;3.22;;;;;;;11.82;100.00;102175.59;4927573;28;20054;-77
2023/09/25 06:02:41;;;;;;;3.53;3.22;;;;;;;11.83;100.00;102183.56;4929754;28;20051;-76
2023/09/25 06:05:12;;;;;;;3.08;2.78;;;;;;;11.85;100.00;102186.22;4940332;28;20043;-77
2023/09/25 06:07:42;;;;;;;3.08;2.75;;;;;;;11.87;100.00;102179.19;4904720;28;20053;-77
2023/09/25 06:10:10;;;;;;;3.90;3.33;;;;;;;11.90;100.00;102179.31;4946348;28;20039;-77
2023/09/25 06:12:39;;;;;;;3.55;2.65;;;;;;;11.90;100.00;102185.47;4885628;28;20058;-77
2023/09/25 06:15:09;;;;;;;2.92;2.70;;;;;;;11.93;100.00;102183.75;4945168;28;20066;-76
2023/09/25 06:17:38;;;;;;;2.70;2.50;;;;;;;11.94;100.00;102181.13;4950260;29;20410;-76
2023/09/25 06:20:14;;;;;;;2.40;2.20;;;;;;;11.97;100.00;102186.50;4949674;28;20043;-76
2023/09/25 06:22:43;;;;;;;3.22;2.35;;;;;;;11.99;100.00;102186.53;4865312;29;20051;-77
2023/09/25 06:25:11;;;;;;;4.33;2.57;;;;;;;12.01;100.00;102180.41;4926447;29;20062;-77
2023/09/25 06:27:44;;;;;;;4.50;2.80;;;;;;;12.04;100.00;102183.09;4916826;29;20046;-77
2023/09/25 06:30:13;;;;;;;2.90;2.30;;;;;;;12.06;100.00;102180.47;4965112;28;20065;-77
2023/09/25 06:32:40;;;;;;;4.30;2.40;;;;;;;12.11;100.00;102177.94;4938217;29;20055;-78
2023/09/25 06:35:08;;;;;;;4.05;2.38;;;;;;;12.12;100.00;102180.59;4941876;28;20054;-78
2023/09/25 06:37:36;;;;;;;2.97;2.28;;;;;;;12.15;100.00;102180.63;4904962;28;20043;-77
2023/09/25 06:40:09;;;;;;;3.47;3.03;;;;;;;12.19;100.00;102186.88;4949206;28;20051;-77
2023/09/25 06:42:38;;;;;;;2.53;2.33;;;;;;;12.23;100.00;102186.97;4937993;28;20058;-77
2023/09/25 06:45:06;;;;;;;2.85;2.45;;;;;;;12.26;100.00;102194.06;4937881;29;20051;-77
2023/09/25 06:47:34;;;;;;;3.92;2.40;;;;;;;12.31;100.00;102184.47;4967167;28;20074;-77
2023/09/25 06:50:01;;;;;;;2.78;2.33;;;;;;;12.35;100.00;102201.28;4921703;29;20051;-77
2023/09/25 06:52:29;;;;;;;3.28;2.20;;;;;;;12.41;100.00;102193.44;4914421;29;20421;-77
2023/09/25 06:54:57;;;;;;;2.30;1.98;;;;;;;12.45;100.00;102193.50;4938996;28;20047;-77
2023/09/25 06:57:25;;;;;;;3.45;2.35;;;;;;;12.52;100.00;102193.63;4916592;29;20058;-77
2023/09/25 06:59:52;;;;;;;4.40;2.22;;;;;;;12.58;100.00;102191.06;4907348;29;20043;-77
2023/09/25 07:02:20;;;;;;;2.95;2.40;;;;;;;12.62;100.00;102193.78;4916030;29;20426;-77
2023/09/25 07:04:48;;;;;;;4.60;2.20;;;;;;;12.66;100.00;102198.28;4927746;29;20048;-78
2023/09/25 07:07:16;;;;;;;2.47;2.20;;;;;;;12.72;100.00;102189.56;4929454;29;20048;-77
2023/09/25 07:09:43;;;;;;;2.78;2.58;;;;;;;12.74;100.00;102182.53;4868800;29;20063;-77
2023/09/25 07:12:15;;;;;;;4.75;2.55;;;;;;;12.78;100.00;102194.94;4926787;29;20047;-78
2023/09/25 07:14:56;;;;;;;4.45;2.30;;;;;;;12.81;100.00;102194.09;4909084;29;20499;-77
2023/09/25 07:17:24;;;;;;;3.80;1.70;;;;;;;12.84;100.00;102183.56;4917689;29;20518;-77
2023/09/25 07:19:52;;;;;;;3.05;2.28;;;;;;;12.88;100.00;102186.25;4917629;29;20067;-77
2023/09/25 07:22:22;;;;;;;3.50;2.38;;;;;;;12.92;100.00;102183.66;4888191;29;20070;-77
2023/09/25 07:24:50;;;;;;;4.47;2.20;;;;;;;12.95;100.00;102184.59;4878629;29;20070;-78
2023/09/25 07:27:18;;;;;;;3.63;2.20;;;;;;;12.99;100.00;102186.44;4928859;29;20062;-77
2023/09/25 07:29:46;;;;;;;3.22;2.20;;;;;;;13.05;100.00;102188.28;4919483;29;20048;-77
2023/09/25 07:32:18;;;;;;;2.30;1.90;;;;;;;13.08;100.00;102180.38;4916452;28;20047;-77
2023/09/25 07:34:45;;;;;;;5.20;2.15;;;;;;;13.15;100.00;102189.28;4916004;29;20075;-77
2023/09/25 07:37:13;;;;;;;2.60;2.10;;;;;;;13.18;100.00;102190.22;4913890;29;20050;-77
2023/09/25 07:39:40;;;;;;;2.20;1.85;;;;;;;13.23;100.00;102200.84;4884289;29;20047;-77
2023/09/25 07:42:09;;;;;;;3.47;1.80;;;;;;;13.29;100.00;102197.41;4939987;29;20059;-77
2023/09/25 07:44:36;;;;;;;2.08;1.95;;;;;;;13.33;100.00;102192.22;4930930;28;20082;-77
2023/09/25 07:47:12;;;;;;;2.45;2.25;;;;;;;13.38;100.00;102187.88;4939889;29;20054;-77
2023/09/25 07:49:45;;;;;;;2.97;2.25;;;;;;;13.43;100.00;102183.53;4908111;29;20084;-77
2023/09/25 07:52:19;;;;;;;5.03;2.20;;;;;;;13.49;100.00;102190.66;4925943;29;20070;-77
2023/09/25 07:54:51;;;;;;;4.80;2.50;;;;;;;13.54;100.00;102196.91;4919043;29;20048;-77
2023/09/25 07:57:20;;;;;;;3.22;2.00;;;;;;;13.60;100.00;102190.78;4924997;28;20047;-77
2023/09/25 07:59:49;;;;;;;4.03;2.03;;;;;;;13.67;100.00;102191.75;4899596;29;20059;-77
2023/09/25 08:02:19;;;;;;;3.38;2.10;;;;;;;13.75;100.00;102190.97;4922819;29;20043;-78
2023/09/25 08:04:50;;;;;;;4.85;2.05;;;;;;;13.84;100.00;102188.44;4921105;29;20058;-77
2023/09/25 08:07:20;;;;;;;3.40;2.15;;;;;;;13.94;100.00;102186.75;4921844;29;20070;-77
2023/09/25 08:09:48;;;;;;;5.20;2.42;;;;;;;14.07;100.00;102185.13;4888432;29;20052;-77
2023/09/25 08:12:15;;;;;;;4.57;2.28;;;;;;;14.27;100.00;102192.38;4903607;29;20047;-77
2023/09/25 08:14:43;;;;;;;2.75;2.45;;;;;;;14.49;100.00;102180.22;4893140;29;20400;-78
2023/09/25 08:17:10;;;;;;;6.30;2.45;;;;;;;14.64;100.00;102185.66;4903568;29;20051;-77
2023/09/25 08:19:38;;;;;;;3.03;1.92;;;;;;;14.74;100.00;102182.19;4915433;29;20059;-77
2023/09/25 08:22:05;;;;;;;4.82;2.42;;;;;;;14.85;100.00;102182.28;4879419;29;20539;-78
2023/09/25 08:24:32;;;;;;;3.13;2.00;;;;;;;14.93;100.00;102184.97;4918282;29;20055;-78
2023/09/25 08:27:00;;;;;;;2.15;1.60;;;;;;;14.95;100.00;102178.81;4881923;29;20048;-77
2023/09/25 08:29:27;;;;;;;3.60;1.80;;;;;;;15.00;100.00;102168.22;4913966;29;20078;-78
2023/09/25 08:31:54;;;;;;;3.38;1.85;;;;;;;15.02;100.00;102179.72;4876168;29;20060;-77
2023/09/25 08:34:22;;;;;;;2.17;1.98;;;;;;;15.06;100.00;102185.94;4944938;29;20541;-78
2023/09/25 08:36:49;;;;;;;3.10;2.20;;;;;;;15.07;100.00;102182.44;4929942;29;20044;-77
2023/09/25 08:39:17;;;;;;;2.95;1.80;;;;;;;15.10;100.00;102183.31;4912501;29;20503;-77
2023/09/25 08:41:45;;;;;;;4.05;1.80;;;;;;;15.13;100.00;102183.34;4929153;29;20625;-77
2023/09/25 08:44:15;;;;;;;3.15;1.75;;;;;;;15.16;100.00;102172.75;4905454;29;20547;-78
2023/09/25 08:46:43;;;;;;;2.45;1.70;;;;;;;15.21;100.00;102184.25;4933540;28;20502;-77
2023/09/25 08:49:11;;;;;;;3.90;1.75;;;;;;;15.27;100.00;102179.88;4911578;29;20051;-77
2023/09/25 08:51:39;;;;;;;1.85;1.70;;;;;;;15.30;100.00;102174.56;4897012;29;20060;-77
2023/09/25 08:54:07;;;;;;;2.35;1.50;;;;;;;15.35;100.00;102194.09;4917646;29;20044;-78
2023/09/25 08:56:35;;;;;;;2.33;1.88;;;;;;;15.39;100.00;102179.94;4929335;28;20064;-77
2023/09/25 08:59:04;;;;;;;2.22;1.90;;;;;;;15.45;100.00;102192.34;4879549;29;20074;-77
2023/09/25 09:01:34;;;;;;;2.25;1.70;;;;;;;15.53;100.00;102180.88;4929391;29;20043;-77
2023/09/25 09:04:02;;;;;;;5.10;1.95;;;;;;;15.64;100.00;102185.34;4924506;29;20055;-77
2023/09/25 09:06:30;;;;;;;1.98;1.77;;;;;;;15.79;100.00;102177.44;4926065;29;20396;-77
2023/09/25 09:08:57;;;;;;;3.53;1.80;;;;;;;15.92;100.00;102175.72;4927487;29;20058;-77
2023/09/25 09:11:25;;;;;;;2.80;1.88;;;;;;;16.00;100.00;102179.28;4927069;29;20055;-77
2023/09/25 09:13:52;;;;;;;4.30;1.50;;;;;;;16.05;100.00;102171.28;4890496;29;20747;-78
2023/09/25 09:16:19;;;;;;;2.28;1.50;;;;;;;16.08;100.00;102172.19;4884400;29;20055;-77
2023/09/25 09:18:47;;;;;;;2.58;1.88;;;;;;;16.09;100.00;102168.66;4912480;29;20529;-77
2023/09/25 09:21:24;;;;;;;3.67;1.45;;;;;;;16.08;100.00;102174.84;4940035;28;20055;-77
2023/09/25 09:23:56;;;;;;;1.50;1.25;;;;;;;16.07;100.00;102166.88;4924057;29;20047;-78
2023/09/25 09:26:28;;;;;;;2.17;1.75;;;;;;;16.06;100.00;102155.34;4914638;29;20055;-77
2023/09/25 09:28:55;;;;;;;1.95;1.50;;;;;;;16.05;100.00;102155.31;4903138;29;20047;-77
2023/09/25 09:31:22;;;;;;;3.15;1.75;;;;;;;16.03;100.00;102159.75;4896044;29;20048;-78
2023/09/25 09:33:53;;;;;;;2.08;1.60;;;;;;;16.05;100.00;102155.31;4896667;29;20047;-78
2023/09/25 09:36:23;;;;;;;3.78;1.85;;;;;;;16.09;100.00;102151.81;4938368;29;20074;-78
2023/09/25 09:38:52;;;;;;;3.38;2.00;;;;;;;16.13;100.00;102149.16;4933512;29;20055;-77
2023/09/25 09:41:19;;;;;;;4.07;2.25;;;;;;;16.22;100.00;102144.72;4949012;28;20052;-77
2023/09/25 09:43:47;;;;;;;2.15;1.83;;;;;;;16.32;100.00;102155.38;4930514;29;20067;-77
2023/09/25 09:46:15;;;;;;;2.38;1.52;;;;;;;16.44;100.00;102153.59;4874349;29;20713;-77
2023/09/25 09:48:46;;;;;;;1.90;1.60;;;;;;;16.54;100.00;102156.25;4940520;29;20483;-77
2023/09/25 09:51:16;;;;;;;1.63;1.52;;;;;;;16.69;100.00;102146.47;4948857;28;20063;-77
2023/09/25 09:53:45;;;;;;;3.33;1.50;;;;;;;16.84;100.00;102156.22;4925732;29;20531;-77
2023/09/25 09:56:16;;;;;;;3.88;2.22;;;;;;;16.95;100.00;102155.31;4920817;29;20048;-77
2023/09/25 09:58:46;;;;;;;1.85;1.38;;;;;;;17.08;100.00;102150.84;4920167;29;20050;-78
2023/09/25 10:01:14;;;;;;;2.13;1.65;;;;;;;17.17;100.00;102146.41;4853366;29;20051;-77
2023/09/25 10:03:42;;;;;;;3.95;1.98;;;;;;;17.23;100.00;102144.59;4917763;29;20055;-77
2023/09/25 10:06:11;;;;;;;2.65;1.70;;;;;;;17.32;100.00;102146.34;4923517;29;20054;-78
2023/09/25 10:08:38;;;;;;;3.63;1.63;;;;;;;17.41;100.00;102148.97;4907988;29;20059;-77
2023/09/25 10:11:19;;;;;;;3.85;1.83;;;;;;;17.49;100.00;102155.13;4931931;29;20051;-78
2023/09/25 10:13:47;;;;;;;2.15;1.70;;;;;;;17.56;100.00;102165.75;4914452;29;20059;-78
2023/09/25 10:16:15;;;;;;;5.95;1.70;;;;;;;17.60;100.00;102162.19;4882640;29;20043;-78
2023/09/25 10:18:43;;;;;;;2.08;1.70;;;;;;;17.65;100.00;102160.38;4925767;29;20051;-78
2023/09/25 10:21:14;;;;;;;2.10;1.55;;;;;;;17.66;100.00;102167.50;4925327;29;20039;-78
2023/09/25 10:23:50;;;;;;;1.60;1.45;;;;;;;17.67;100.00;102170.13;4898671;29;20048;-77
2023/09/25 10:26:22;;;;;;;1.98;1.60;;;;;;;17.68;100.00;102176.38;4933373;29;20047;-77
2023/09/25 10:29:13;;;;;;;3.50;1.77;;;;;;;17.72;100.00;102178.13;4930031;28;20051;-78
2023/09/25 10:31:47;;;;;;;2.45;1.40;;;;;;;17.77;100.00;102175.41;4887699;28;20056;-78
2023/09/25 10:34:16;;;;;;;1.98;1.48;;;;;;;17.84;100.00;102178.06;4923040;29;20052;-77
2023/09/25 10:36:47;;;;;;;1.65;1.30;;;;;;;17.90;100.00;102185.16;4906249;29;20277;-77
2023/09/25 10:39:17;;;;;;;1.38;1.23;;;;;;;17.91;100.00;102187.81;4917500;29;20422;-77
2023/09/25 10:41:56;;;;;;;2.27;1.60;;;;;;;17.93;100.00;102191.34;4924633;29;20082;-77
2023/09/25 10:44:25;;;;;;;3.75;1.73;;;;;;;17.96;100.00;102198.47;4900722;29;20044;-77
2023/09/25 10:46:53;;;;;;;2.40;1.80;;;;;;;17.98;100.00;102198.47;4907274;29;20067;-77
2023/09/25 10:49:22;;;;;;;3.20;1.35;;;;;;;17.99;100.00;102203.75;4884390;29;20058;-77
2023/09/25 10:51:49;;;;;;;4.40;1.73;;;;;;;18.00;100.00;102200.22;4887470;29;24700;-78
2023/09/25 10:54:16;;;;;;;7.35;1.50;;;;;;;18.02;100.00;102197.53;4898464;29;20906;-78
2023/09/25 10:56:44;;;;;;;4.88;1.55;;;;;;;18.01;100.00;102207.31;4925835;29;20055;-78
2023/09/25 10:59:11;;;;;;;3.33;1.60;;;;;;;18.03;100.00;102199.28;4922763;29;20051;-78
2023/09/25 11:01:38;;;;;;;3.08;1.70;;;;;;;18.05;100.00;102213.50;4918811;29;20054;-78
2023/09/25 11:04:09;;;;;;;5.40;1.70;;;;;;;18.09;100.00;102213.50;4879048;29;20097;-76
2023/09/25 11:06:36;;;;;;;;;;;;;;;18.14;100.00;102197.44;4899518;29;20060;-78
2023/09/25 11:09:14;;;;;;;4.13;1.80;;;;;;;18.19;100.00;102194.75;4913649;29;19926;-78
2023/09/25 11:11:45;;;;;;;2.83;1.55;;;;;;;18.22;100.00;102198.31;4920725;29;20050;-78
2023/09/25 11:14:13;;;;;;;2.60;1.30;;;;;;;18.24;100.00;102188.50;4930621;29;20051;-78
2023/09/25 11:16:41;;;;;;;5.93;1.92;;;;;;;18.26;100.00;102186.69;4924150;29;20609;-77
2023/09/25 11:19:14;;;;;;;2.88;1.70;;;;;;;18.34;100.00;102191.97;4901361;29;20078;-78
2023/09/25 11:21:46;;;;;;;2.72;1.65;;;;;;;18.40;100.00;102193.72;4914526;29;20056;-78
2023/09/25 11:24:15;;;;;;;2.42;1.55;;;;;;;18.46;100.00;102194.53;4911618;29;20498;-78